Time;durP1;ratioP1;P1;durP2;ratioP2;P2;SDS_P1;SDS_P2;PMS_P1;PMS_P2;Temp;Humidity;BMP_temperature;BMP_pressure;BME280_temperature;BME280_humidity;BME280_pressure;Samples;Min_cycle;Max_cycle;Signal;HPM_P1;HPM_P2
2023/03/28 00:00:37;;;;;;;;;7.75;6.75;;;;;;;;5073486;27;46947;-58
2023/03/28 00:03:04;;;;;;;;;14.00;9.00;;;;;;;;5074371;27;45556;-59
2023/03/28 00:05:30;;;;;;;;;6.00;5.00;;;;;;;;5076809;27;45510;-58
2023/03/28 00:07:55;;;;;;;;;6.50;6.50;;;;;;;;5076423;27;45515;-58
2023/03/28 00:10:21;;;;;;;;;7.25;6.50;;;;;;;;5076198;27;46030;-59
2023/03/28 00:12:46;;;;;;;;;5.25;5.25;;;;;;;;5067142;27;45533;-59
2023/03/28 00:15:11;;;;;;;;;9.00;9.00;;;;;;;;5076602;27;45466;-58
2023/03/28 00:17:36;;;;;;;;;9.75;8.50;;;;;;;;5076466;27;45630;-59
2023/03/28 00:20:03;;;;;;;;;8.00;8.00;;;;;;;;5076241;27;45631;-59
2023/03/28 00:22:29;;;;;;;;;7.50;7.50;;;;;;;;5067501;28;45463;-59
2023/03/28 00:24:55;;;;;;;;;7.75;6.50;;;;;;;;5074389;27;45520;-59
2023/03/28 00:27:21;;;;;;;;;6.25;6.25;;;;;;;;5076434;27;45470;-58
2023/03/28 00:29:46;;;;;;;;;5.00;5.00;;;;;;;;5074172;27;45936;-59
2023/03/28 00:32:12;;;;;;;;;7.75;6.75;;;;;;;;5070049;27;45498;-59
2023/03/28 00:34:37;;;;;;;;;6.75;6.00;;;;;;;;5070001;27;45525;-59
2023/03/28 00:37:03;;;;;;;;;8.00;8.00;;;;;;;;5076337;27;45531;-58
2023/03/28 00:39:30;;;;;;;;;6.00;5.00;;;;;;;;5075984;27;46040;-58
2023/03/28 00:41:56;;;;;;;;;6.50;6.50;;;;;;;;5072202;27;45591;-59
2023/03/28 00:44:39;;;;;;;;;7.00;6.75;;;;;;;;5066194;27;45572;-62
2023/03/28 00:47:10;;;;;;;;;7.50;6.50;;;;;;;;5075694;27;46072;-58
2023/03/28 00:49:35;;;;;;;;;7.75;6.75;;;;;;;;5075728;27;46174;-59
2023/03/28 00:52:02;;;;;;;;;6.00;6.00;;;;;;;;5071549;27;45507;-58
2023/03/28 00:54:29;;;;;;;;;5.25;4.00;;;;;;;;5075259;27;45592;-59
2023/03/28 00:56:56;;;;;;;;;5.75;4.75;;;;;;;;5075590;27;45464;-58
2023/03/28 00:59:23;;;;;;;;;5.50;4.00;;;;;;;;5075403;27;46161;-59
2023/03/28 01:01:48;;;;;;;;;4.50;4.50;;;;;;;;5073828;27;46006;-59
2023/03/28 01:04:19;;;;;;;;;5.75;4.75;;;;;;;;5075557;27;45499;-59
2023/03/28 01:06:46;;;;;;;;;7.00;3.50;;;;;;;;5075625;27;45509;-59
2023/03/28 01:09:13;;;;;;;;;4.00;4.00;;;;;;;;5075454;28;45514;-59
2023/03/28 01:11:39;;;;;;;;;6.25;5.25;;;;;;;;5073867;28;45509;-59
2023/03/28 01:14:06;;;;;;;;;4.50;4.50;;;;;;;;5068562;27;45509;-59
2023/03/28 01:16:31;;;;;;;;;4.00;4.00;;;;;;;;5075276;27;45414;-59
2023/03/28 01:19:01;;;;;;;;;3.33;3.33;;;;;;;;5075315;27;46523;-60
2023/03/28 01:21:47;;;;;;;;;5.00;4.00;;;;;;;;5074161;27;45568;-59
2023/03/28 01:24:12;;;;;;;;;6.00;5.00;;;;;;;;5075616;28;45446;-58
2023/03/28 01:26:43;;;;;;;;;3.33;3.33;;;;;;;;5075091;27;45502;-58
2023/03/28 01:29:18;;;;;;;;;3.33;3.33;;;;;;;;5066585;28;46909;-59
2023/03/28 01:32:02;;;;;;;;;3.00;3.00;;;;;;;;5074262;27;45495;-59
2023/03/28 01:34:45;;;;;;;;;6.00;5.00;;;;;;;;5057020;27;45597;-58
2023/03/28 01:37:10;;;;;;;;;5.00;5.00;;;;;;;;5073503;27;45581;-59
2023/03/28 01:39:54;;;;;;;;;4.67;4.33;;;;;;;;5074975;28;45461;-58
2023/03/28 01:42:43;;;;;;;;;5.00;5.00;;;;;;;;5069639;27;45512;-59
2023/03/28 01:45:13;;;;;;;;;4.50;4.00;;;;;;;;5062166;27;45693;-59
2023/03/28 01:47:40;;;;;;;;;4.75;3.75;;;;;;;;5073624;27;45537;-59
2023/03/28 01:50:22;;;;;;;;;7.00;6.00;;;;;;;;5074931;27;45544;-58
2023/03/28 01:52:56;;;;;;;;;4.50;4.50;;;;;;;;5066038;27;45638;-58
2023/03/28 01:55:27;;;;;;;;;6.00;5.25;;;;;;;;5075043;27;45646;-59
2023/03/28 01:57:52;;;;;;;;;4.00;4.00;;;;;;;;5074842;27;45434;-59
2023/03/28 02:00:23;;;;;;;;;6.00;5.00;;;;;;;;5074647;27;46064;-59
2023/03/28 02:02:48;;;;;;;;;4.00;4.00;;;;;;;;5066043;27;45451;-59
2023/03/28 02:05:14;;;;;;;;;4.75;4.75;;;;;;;;5072892;27;45476;-58
2023/03/28 02:07:41;;;;;;;;;6.00;5.00;;;;;;;;5074648;27;45620;-59
2023/03/28 02:10:08;;;;;;;;;5.75;5.00;;;;;;;;5074409;27;45410;-58
2023/03/28 02:12:35;;;;;;;;;4.75;4.75;;;;;;;;5068013;28;46144;-58
2023/03/28 02:15:05;;;;;;;;;4.25;4.25;;;;;;;;5060103;28;45488;-59
2023/03/28 02:17:33;;;;;;;;;4.50;4.25;;;;;;;;5074600;28;45569;-58
2023/03/28 02:20:06;;;;;;;;;4.00;4.00;;;;;;;;5074362;27;46331;-59
2023/03/28 02:22:43;;;;;;;;;4.50;4.50;;;;;;;;5067865;27;45624;-59
2023/03/28 02:25:09;;;;;;;;;4.50;4.50;;;;;;;;5068630;28;45503;-59
2023/03/28 02:27:36;;;;;;;;;5.00;5.00;;;;;;;;5068098;27;45431;-58
2023/03/28 02:30:01;;;;;;;;;9.00;6.00;;;;;;;;5066077;27;45509;-59
2023/03/28 02:32:27;;;;;;;;;8.00;5.00;;;;;;;;5058382;27;45576;-59
2023/03/28 02:34:54;;;;;;;;;5.00;5.00;;;;;;;;5072997;28;46176;-59
2023/03/28 02:37:25;;;;;;;;;6.00;6.00;;;;;;;;5074231;27;45508;-59
2023/03/28 02:40:02;;;;;;;;;4.00;4.00;;;;;;;;5073759;27;45486;-59
2023/03/28 02:42:39;;;;;;;;;6.50;5.25;;;;;;;;5070341;27;45459;-59
2023/03/28 02:45:04;;;;;;;;;4.00;4.00;;;;;;;;5074104;27;45479;-59
2023/03/28 02:47:37;;;;;;;;;5.00;5.00;;;;;;;;5072431;27;45387;-58
2023/03/28 02:50:05;;;;;;;;;8.00;6.50;;;;;;;;5073850;27;45510;-58
2023/03/28 02:52:36;;;;;;;;;3.25;3.25;;;;;;;;5068677;27;45535;-59
2023/03/28 02:55:07;;;;;;;;;5.75;5.75;;;;;;;;5073982;27;45635;-59
2023/03/28 02:57:40;;;;;;;;;3.25;3.25;;;;;;;;5073870;27;45570;-59
2023/03/28 03:00:26;;;;;;;;;5.50;5.00;;;;;;;;5060501;27;46376;-59
2023/03/28 03:02:51;;;;;;;;;5.25;4.00;;;;;;;;5066662;27;45481;-59
2023/03/28 03:05:19;;;;;;;;;3.50;3.50;;;;;;;;5073773;27;46090;-58
2023/03/28 03:07:44;;;;;;;;;8.00;5.75;;;;;;;;5072525;27;45514;-59
2023/03/28 03:10:10;;;;;;;;;4.00;4.00;;;;;;;;5073606;27;45560;-59
2023/03/28 03:12:36;;;;;;;;;4.25;4.25;;;;;;;;5067975;28;45492;-58
2023/03/28 03:15:02;;;;;;;;;6.50;4.50;;;;;;;;5071349;27;45484;-57
2023/03/28 03:17:28;;;;;;;;;4.00;4.00;;;;;;;;5072319;28;46103;-58
2023/03/28 03:19:53;;;;;;;;;5.75;5.75;;;;;;;;5073220;27;45583;-58
2023/03/28 03:22:19;;;;;;;;;4.75;3.50;;;;;;;;5070217;27;45498;-58
2023/03/28 03:24:45;;;;;;;;;5.00;5.00;;;;;;;;5067272;27;45509;-58
2023/03/28 03:27:11;;;;;;;;;4.25;4.25;;;;;;;;5073170;27;45745;-57
2023/03/28 03:29:36;;;;;;;;;7.25;6.00;;;;;;;;5072815;27;45884;-58
2023/03/28 03:32:01;;;;;;;;;5.00;5.00;;;;;;;;5072764;27;45426;-60
2023/03/28 03:34:26;;;;;;;;;5.00;3.25;;;;;;;;5072162;28;45478;-58
2023/03/28 03:36:53;;;;;;;;;5.00;5.00;;;;;;;;5073316;28;45354;-57
2023/03/28 03:39:18;;;;;;;;;6.00;4.00;;;;;;;;5072885;27;45544;-57
2023/03/28 03:41:44;;;;;;;;;6.75;4.75;;;;;;;;5073234;27;45499;-58
2023/03/28 03:44:09;;;;;;;;;3.00;3.00;;;;;;;;5070982;27;45486;-58
2023/03/28 03:46:34;;;;;;;;;4.50;4.00;;;;;;;;5072917;27;45466;-59
2023/03/28 03:48:59;;;;;;;;;7.25;5.25;;;;;;;;5073024;27;45556;-59
2023/03/28 03:51:24;;;;;;;;;8.75;5.50;;;;;;;;5073063;27;45484;-58
2023/03/28 03:53:50;;;;;;;;;7.00;5.25;;;;;;;;5072943;27;45434;-58
2023/03/28 03:56:15;;;;;;;;;6.00;5.00;;;;;;;;5071336;27;45606;-58
2023/03/28 03:58:41;;;;;;;;;4.00;4.00;;;;;;;;5072922;27;46102;-57
2023/03/28 04:01:08;;;;;;;;;4.50;3.00;;;;;;;;5072837;27;45495;-58
2023/03/28 04:03:34;;;;;;;;;3.50;3.50;;;;;;;;5067951;27;45514;-58
2023/03/28 04:06:00;;;;;;;;;5.00;5.00;;;;;;;;5072752;27;45483;-59
2023/03/28 04:08:26;;;;;;;;;3.75;3.75;;;;;;;;5072478;27;45535;-58
2023/03/28 04:10:51;;;;;;;;;4.00;4.00;;;;;;;;5072625;27;45552;-58
2023/03/28 04:13:16;;;;;;;;;5.00;5.00;;;;;;;;5066286;27;45713;-58
2023/03/28 04:15:41;;;;;;;;;6.50;5.50;;;;;;;;5072889;27;45514;-58
2023/03/28 04:18:07;;;;;;;;;6.50;5.00;;;;;;;;5072267;27;46081;-58
2023/03/28 04:20:32;;;;;;;;;3.50;1.75;;;;;;;;5071828;27;45415;-58
2023/03/28 04:22:59;;;;;;;;;8.50;5.25;;;;;;;;5072690;28;45580;-58
2023/03/28 04:25:24;;;;;;;;;4.00;4.00;;;;;;;;5072786;28;45666;-58
2023/03/28 04:27:53;;;;;;;;;4.75;4.75;;;;;;;;5072460;27;46186;-58
2023/03/28 04:30:18;;;;;;;;;6.50;5.25;;;;;;;;5071515;27;45550;-57
2023/03/28 04:32:48;;;;;;;;;5.50;5.00;;;;;;;;5072271;27;45495;-58
2023/03/28 04:35:15;;;;;;;;;6.50;5.00;;;;;;;;5072316;28;45566;-57
2023/03/28 04:37:40;;;;;;;;;5.75;5.75;;;;;;;;5071848;27;46425;-58
2023/03/28 04:40:15;;;;;;;;;5.00;5.00;;;;;;;;5070472;27;45553;-58
2023/03/28 04:42:40;;;;;;;;;4.75;4.75;;;;;;;;5072143;28;45456;-58
2023/03/28 04:45:07;;;;;;;;;6.00;5.50;;;;;;;;5061562;28;45719;-58
2023/03/28 04:47:32;;;;;;;;;5.25;5.25;;;;;;;;5075708;27;45510;-58
2023/03/28 04:49:57;;;;;;;;;6.50;5.50;;;;;;;;5073061;27;45557;-58
2023/03/28 04:52:23;;;;;;;;;8.00;6.25;;;;;;;;5069103;27;45528;-58
2023/03/28 04:54:48;;;;;;;;;6.00;6.00;;;;;;;;5075585;27;45481;-58
2023/03/28 04:57:13;;;;;;;;;3.75;3.75;;;;;;;;5071826;27;46467;-59
2023/03/28 04:59:38;;;;;;;;;6.00;5.50;;;;;;;;5072557;27;45430;-58
2023/03/28 05:02:03;;;;;;;;;6.00;6.00;;;;;;;;5075959;27;45394;-58
2023/03/28 05:04:29;;;;;;;;;5.50;5.50;;;;;;;;5075427;27;45468;-58
2023/03/28 05:06:54;;;;;;;;;5.00;5.00;;;;;;;;5074591;27;45562;-58
2023/03/28 05:09:21;;;;;;;;;5.00;5.00;;;;;;;;5068506;27;45453;-58
2023/03/28 05:11:46;;;;;;;;;7.50;7.25;;;;;;;;5075576;27;45555;-58
2023/03/28 05:14:12;;;;;;;;;7.00;5.75;;;;;;;;5075486;27;45457;-58
2023/03/28 05:16:37;;;;;;;;;6.75;5.50;;;;;;;;5075259;27;46022;-58
2023/03/28 05:19:02;;;;;;;;;9.00;9.00;;;;;;;;5065970;27;45486;-58
2023/03/28 05:21:29;;;;;;;;;10.75;8.75;;;;;;;;5075479;27;45420;-58
2023/03/28 05:23:55;;;;;;;;;8.50;8.50;;;;;;;;5075476;27;45603;-57
2023/03/28 05:26:20;;;;;;;;;10.00;7.25;;;;;;;;5075369;27;46125;-58
2023/03/28 05:28:45;;;;;;;;;6.00;6.00;;;;;;;;5064016;27;45501;-58
2023/03/28 05:31:11;;;;;;;;;8.50;6.00;;;;;;;;5075061;27;45457;-58
2023/03/28 05:33:37;;;;;;;;;6.00;6.00;;;;;;;;5075138;27;45488;-58
2023/03/28 05:36:03;;;;;;;;;9.00;9.00;;;;;;;;5074773;27;46082;-58
2023/03/28 05:38:30;;;;;;;;;7.50;7.50;;;;;;;;5072866;27;45580;-58
2023/03/28 05:40:56;;;;;;;;;9.00;7.25;;;;;;;;5073567;27;45419;-58
2023/03/28 05:43:21;;;;;;;;;10.50;9.50;;;;;;;;5074991;27;45394;-58
2023/03/28 05:45:46;;;;;;;;;6.00;5.75;;;;;;;;5074880;27;46387;-58
2023/03/28 05:48:11;;;;;;;;;5.50;5.50;;;;;;;;5070970;27;45476;-59
2023/03/28 05:50:37;;;;;;;;;8.25;8.25;;;;;;;;5075109;27;45512;-57
2023/03/28 05:53:02;;;;;;;;;10.00;8.00;;;;;;;;5074582;27;45548;-60
2023/03/28 05:55:27;;;;;;;;;10.00;9.00;;;;;;;;5074713;27;45563;-58
2023/03/28 05:57:52;;;;;;;;;9.75;8.25;;;;;;;;5068769;27;45665;-58
2023/03/28 06:00:18;;;;;;;;;6.75;5.75;;;;;;;;5074828;27;45430;-57
2023/03/28 06:02:43;;;;;;;;;10.25;9.00;;;;;;;;5074614;27;45501;-58
2023/03/28 06:05:12;;;;;;;;;10.75;10.00;;;;;;;;5074403;27;45581;-58
2023/03/28 06:07:38;;;;;;;;;13.00;9.75;;;;;;;;5068841;27;45521;-58
2023/03/28 06:10:04;;;;;;;;;8.50;6.75;;;;;;;;5071738;27;45577;-58
2023/03/28 06:12:29;;;;;;;;;7.75;7.75;;;;;;;;5074731;27;45481;-57
2023/03/28 06:14:55;;;;;;;;;10.25;8.75;;;;;;;;5073848;27;46302;-58
2023/03/28 06:17:21;;;;;;;;;10.00;8.50;;;;;;;;5071447;27;45490;-58
2023/03/28 06:19:46;;;;;;;;;8.25;7.75;;;;;;;;5069208;28;45553;-58
2023/03/28 06:22:11;;;;;;;;;8.75;5.00;;;;;;;;5073003;27;45466;-58
2023/03/28 06:24:36;;;;;;;;;9.25;9.00;;;;;;;;5070241;27;46019;-58
2023/03/28 06:27:02;;;;;;;;;9.75;9.75;;;;;;;;5068294;27;45539;-58
2023/03/28 06:29:27;;;;;;;;;10.50;9.00;;;;;;;;5065660;28;45451;-58
2023/03/28 06:31:52;;;;;;;;;10.50;10.50;;;;;;;;5073553;27;45500;-58
2023/03/28 06:34:17;;;;;;;;;10.25;10.25;;;;;;;;5074270;28;45490;-58
2023/03/28 06:36:42;;;;;;;;;10.00;9.25;;;;;;;;5069850;28;45438;-58
2023/03/28 06:39:11;;;;;;;;;6.25;6.25;;;;;;;;5071200;27;45445;-57
2023/03/28 06:41:36;;;;;;;;;9.00;9.00;;;;;;;;5074811;28;45533;-60
2023/03/28 06:44:01;;;;;;;;;11.00;10.00;;;;;;;;5064657;27;46309;-59
2023/03/28 06:46:26;;;;;;;;;11.50;11.25;;;;;;;;5066406;27;45453;-57
2023/03/28 06:48:51;;;;;;;;;9.75;9.75;;;;;;;;5070356;27;45473;-58
2023/03/28 06:51:17;;;;;;;;;9.25;9.25;;;;;;;;5073918;27;45569;-58
2023/03/28 06:53:43;;;;;;;;;9.75;9.75;;;;;;;;5067059;27;46065;-58
2023/03/28 06:56:08;;;;;;;;;9.00;8.00;;;;;;;;5070084;27;45422;-58
2023/03/28 06:58:33;;;;;;;;;11.25;9.50;;;;;;;;5071617;27;45647;-58
2023/03/28 07:00:58;;;;;;;;;14.25;11.75;;;;;;;;5073589;27;46195;-59
2023/03/28 07:03:24;;;;;;;;;8.50;8.50;;;;;;;;5069781;27;45512;-58
2023/03/28 07:05:49;;;;;;;;;10.75;10.75;;;;;;;;5068816;27;45608;-59
2023/03/28 07:08:15;;;;;;;;;11.00;11.00;;;;;;;;5073743;27;45410;-59
2023/03/28 07:10:40;;;;;;;;;11.75;11.75;;;;;;;;5072630;27;45421;-60
2023/03/28 07:13:06;;;;;;;;;10.00;9.25;;;;;;;;5072006;27;45553;-59
2023/03/28 07:15:31;;;;;;;;;11.00;10.25;;;;;;;;5069319;27;45512;-57
2023/03/28 07:17:57;;;;;;;;;10.50;8.25;;;;;;;;5069116;27;45557;-59
2023/03/28 07:20:22;;;;;;;;;11.75;9.25;;;;;;;;5062529;27;45541;-58
2023/03/28 07:22:48;;;;;;;;;10.75;10.75;;;;;;;;5065351;27;46210;-58
2023/03/28 07:25:13;;;;;;;;;11.00;9.25;;;;;;;;5072134;27;45611;-58
2023/03/28 07:27:38;;;;;;;;;9.25;9.25;;;;;;;;5073565;27;45464;-58
2023/03/28 07:30:05;;;;;;;;;13.00;11.25;;;;;;;;5072893;27;45667;-59
2023/03/28 07:32:30;;;;;;;;;10.25;10.25;;;;;;;;5073014;27;45413;-59
2023/03/28 07:34:56;;;;;;;;;9.25;9.25;;;;;;;;5072962;27;45466;-60
2023/03/28 07:37:21;;;;;;;;;10.75;10.75;;;;;;;;5073116;27;46071;-60
2023/03/28 07:39:46;;;;;;;;;9.25;9.25;;;;;;;;5073493;27;45551;-59
2023/03/28 07:42:12;;;;;;;;;9.25;9.25;;;;;;;;5073007;28;45489;-59
2023/03/28 07:44:37;;;;;;;;;11.50;10.25;;;;;;;;5072694;27;45599;-60
2023/03/28 07:47:03;;;;;;;;;15.00;11.75;;;;;;;;5073359;27;45458;-60
2023/03/28 07:49:28;;;;;;;;;10.25;10.25;;;;;;;;5072999;27;45602;-59
2023/03/28 07:51:53;;;;;;;;;12.75;12.75;;;;;;;;5072964;27;45438;-59
2023/03/28 07:54:19;;;;;;;;;11.50;10.25;;;;;;;;5072918;27;45415;-59
2023/03/28 07:56:44;;;;;;;;;10.50;9.00;;;;;;;;5072995;27;45351;-58
2023/03/28 07:59:12;;;;;;;;;10.50;10.50;;;;;;;;5072981;27;45657;-59
2023/03/28 08:01:42;;;;;;;;;13.00;11.50;;;;;;;;5072719;28;46439;-60
2023/03/28 08:04:07;;;;;;;;;12.00;11.00;;;;;;;;5072658;27;45454;-59
2023/03/28 08:06:33;;;;;;;;;12.75;11.00;;;;;;;;5072465;27;45528;-59
2023/03/28 08:08:58;;;;;;;;;12.00;11.00;;;;;;;;5072846;27;45484;-59
2023/03/28 08:11:23;;;;;;;;;12.00;10.50;;;;;;;;5072258;27;45932;-59
2023/03/28 08:13:48;;;;;;;;;12.00;11.00;;;;;;;;5072359;27;45583;-58
2023/03/28 08:16:14;;;;;;;;;12.50;12.50;;;;;;;;5071494;27;45524;-59
2023/03/28 08:18:39;;;;;;;;;11.00;11.00;;;;;;;;5072641;27;45440;-59
2023/03/28 08:21:04;;;;;;;;;11.75;10.75;;;;;;;;5074021;27;46132;-59
2023/03/28 08:23:30;;;;;;;;;11.75;11.75;;;;;;;;5074667;27;45494;-59
2023/03/28 08:26:03;;;;;;;;;11.50;11.50;;;;;;;;5075190;27;45480;-59
2023/03/28 08:28:29;;;;;;;;;13.75;11.00;;;;;;;;5076184;27;45585;-59
2023/03/28 08:30:54;;;;;;;;;13.25;11.00;;;;;;;;5075402;27;45468;-59
2023/03/28 08:33:19;;;;;;;;;12.25;11.75;;;;;;;;5075839;27;45487;-58
2023/03/28 08:35:45;;;;;;;;;10.50;10.25;;;;;;;;5075848;27;45594;-59
2023/03/28 08:38:10;;;;;;;;;10.75;9.50;;;;;;;;5075875;27;45619;-59
2023/03/28 08:40:39;;;;;;;;;12.00;11.00;;;;;;;;5075641;27;45426;-59
2023/03/28 08:43:05;;;;;;;;;7.00;7.00;;;;;;;;5075842;27;45726;-59
2023/03/28 08:45:30;;;;;;;;;8.50;8.50;;;;;;;;5074388;27;45612;-59
2023/03/28 08:47:55;;;;;;;;;7.50;7.50;;;;;;;;5075712;27;45546;-59
2023/03/28 08:50:31;;;;;;;;;7.40;6.00;;;;;;;;5074613;28;46280;-58
2023/03/28 08:52:57;;;;;;;;;6.25;6.25;;;;;;;;5075547;27;45485;-59
2023/03/28 08:55:27;;;;;;;;;8.50;6.75;;;;;;;;5075813;27;45515;-59
2023/03/28 08:57:53;;;;;;;;;6.75;5.50;;;;;;;;5075465;27;45480;-59
2023/03/28 09:00:21;;;;;;;;;5.00;4.00;;;;;;;;5075616;27;46275;-59
2023/03/28 09:02:46;;;;;;;;;5.00;5.00;;;;;;;;5073795;27;45464;-58
2023/03/28 09:05:13;;;;;;;;;5.25;5.25;;;;;;;;5075546;27;45727;-59
2023/03/28 09:07:46;;;;;;;;;5.25;5.00;;;;;;;;5075800;27;45597;-59
2023/03/28 09:10:20;;;;;;;;;6.25;5.25;;;;;;;;5075331;27;46187;-59
2023/03/28 09:12:48;;;;;;;;;4.00;4.00;;;;;;;;5075386;27;45517;-59
2023/03/28 09:15:26;;;;;;;;;4.00;4.00;;;;;;;;5075286;27;45539;-59
2023/03/28 09:18:17;;;;;;;;;3.75;3.75;;;;;;;;5075505;27;45473;-59
2023/03/28 09:20:47;;;;;;;;;5.25;5.00;;;;;;;;5063662;27;46036;-59
2023/03/28 09:23:31;;;;;;;;;7.00;5.75;;;;;;;;5075130;27;45501;-58
2023/03/28 09:26:04;;;;;;;;;5.00;4.00;;;;;;;;5075365;27;45601;-59
2023/03/28 09:28:35;;;;;;;;;4.00;4.00;;;;;;;;5075127;27;45444;-58
2023/03/28 09:31:01;;;;;;;;;6.00;6.00;;;;;;;;5074624;27;45715;-59
2023/03/28 09:33:28;;;;;;;;;5.50;5.50;;;;;;;;5073935;27;45431;-59
2023/03/28 09:35:55;;;;;;;;;5.00;5.00;;;;;;;;5075229;27;45559;-59
2023/03/28 09:38:23;;;;;;;;;17.00;12.50;;;;;;;;5074922;27;45502;-59
2023/03/28 09:40:51;;;;;;;;;8.50;8.50;;;;;;;;5074580;27;46235;-59
2023/03/28 09:43:26;;;;;;;;;5.25;5.00;;;;;;;;5074854;27;45594;-58
2023/03/28 09:45:57;;;;;;;;;3.33;3.33;;;;;;;;5074849;27;45547;-59
2023/03/28 09:48:29;;;;;;;;;4.00;4.00;;;;;;;;5074900;27;45564;-59
2023/03/28 09:50:55;;;;;;;;;8.00;5.00;;;;;;;;5074579;27;46427;-59
2023/03/28 09:53:28;;;;;;;;;5.00;4.00;;;;;;;;5074664;27;45577;-59
2023/03/28 09:55:55;;;;;;;;;4.67;3.67;;;;;;;;5074835;27;45536;-59
2023/03/28 09:58:20;;;;;;;;;3.00;3.00;;;;;;;;5074856;27;45646;-59
2023/03/28 10:00:50;;;;;;;;;4.67;3.67;;;;;;;;5074471;27;45900;-59
2023/03/28 10:03:21;;;;;;;;;6.00;5.00;;;;;;;;5074329;27;45525;-59
2023/03/28 10:05:47;;;;;;;;;4.33;4.33;;;;;;;;5074854;27;45564;-59
2023/03/28 10:08:27;;;;;;;;;4.00;4.00;;;;;;;;5072757;27;45466;-59
2023/03/28 10:11:00;;;;;;;;;4.00;4.00;;;;;;;;5074171;27;46205;-59
2023/03/28 10:13:25;;;;;;;;;7.00;6.00;;;;;;;;5072764;27;45557;-59
2023/03/28 10:15:52;;;;;;;;;11.50;11.25;;;;;;;;5074362;27;46185;-58
2023/03/28 10:18:19;;;;;;;;;5.50;5.50;;;;;;;;5074297;27;45619;-58
2023/03/28 10:20:44;;;;;;;;;4.00;4.00;;;;;;;;5074032;27;46293;-59
2023/03/28 10:23:11;;;;;;;;;5.67;4.67;;;;;;;;5073825;27;45484;-59
2023/03/28 10:25:39;;;;;;;;;5.00;5.00;;;;;;;;5074123;27;45769;-59
2023/03/28 10:28:06;;;;;;;;;5.00;4.00;;;;;;;;5074032;27;45477;-59
2023/03/28 10:30:32;;;;;;;;;5.00;4.00;;;;;;;;5073386;27;46673;-59
2023/03/28 10:33:16;;;;;;;;;2.00;2.00;;;;;;;;5072870;27;45496;-59
2023/03/28 10:35:46;;;;;;;;;3.00;3.00;;;;;;;;5064893;27;45640;-59
2023/03/28 10:38:14;;;;;;;;;5.25;5.25;;;;;;;;5074524;27;45603;-58
2023/03/28 10:40:39;;;;;;;;;2.00;2.00;;;;;;;;5063056;27;45542;-58
2023/03/28 10:43:10;;;;;;;;;3.67;3.67;;;;;;;;5074672;27;45461;-58
2023/03/28 10:45:38;;;;;;;;;4.67;4.00;;;;;;;;5057120;28;45667;-60
2023/03/28 10:48:10;;;;;;;;;6.67;4.33;;;;;;;;5071270;27;45676;-66
2023/03/28 10:50:39;;;;;;;;;4.33;3.33;;;;;;;;5071780;27;45538;-58
2023/03/28 10:53:26;;;;;;;;;4.00;3.00;;;;;;;;5073876;27;45499;-59
2023/03/28 10:55:58;;;;;;;;;3.33;2.00;;;;;;;;5062191;27;45519;-59
2023/03/28 10:58:34;;;;;;;;;4.00;4.00;;;;;;;;5074486;27;45630;-59
2023/03/28 11:01:05;;;;;;;;;8.33;7.00;;;;;;;;5074080;27;45792;-59
2023/03/28 11:03:55;;;;;;;;;3.00;3.00;;;;;;;;5070348;27;45860;-58
2023/03/28 11:06:30;;;;;;;;;3.00;3.00;;;;;;;;5036497;28;45592;-59
2023/03/28 11:08:55;;;;;;;;;6.00;6.00;;;;;;;;5074315;27;45468;-59
2023/03/28 11:11:53;;;;;;;;;6.67;4.67;;;;;;;;5073683;27;45429;-59
2023/03/28 11:14:31;;;;;;;;;3.00;3.00;;;;;;;;5027739;27;45523;-59
2023/03/28 11:17:11;;;;;;;;;4.00;4.00;;;;;;;;5067027;27;45548;-59
2023/03/28 11:19:49;;;;;;;;;4.00;4.00;;;;;;;;5068177;27;45551;-59
2023/03/28 11:22:28;;;;;;;;;4.33;4.33;;;;;;;;5057810;28;46620;-60
2023/03/28 11:24:59;;;;;;;;;3.33;3.33;;;;;;;;5068683;28;45357;-60
2023/03/28 11:27:34;;;;;;;;;4.00;4.00;;;;;;;;5072486;27;45512;-66
2023/03/28 11:30:01;;;;;;;;;5.00;5.00;;;;;;;;5072470;27;45495;-62
2023/03/28 11:32:46;;;;;;;;;5.33;5.00;;;;;;;;5073729;27;46123;-63
2023/03/28 11:35:20;;;;;;;;;2.67;2.67;;;;;;;;5074046;27;45517;-60
2023/03/28 11:37:51;;;;;;;;;6.00;6.00;;;;;;;;5072860;27;45568;-63
2023/03/28 11:40:24;;;;;;;;;4.00;4.00;;;;;;;;5073777;27;45582;-61
2023/03/28 11:42:53;;;;;;;;;5.00;4.00;;;;;;;;5072865;27;46290;-61
2023/03/28 11:45:31;;;;;;;;;3.00;3.00;;;;;;;;5062390;28;45495;-61
2023/03/28 11:48:02;;;;;;;;;6.00;6.00;;;;;;;;5070784;27;45581;-59
2023/03/28 11:50:32;;;;;;;;;6.33;5.00;;;;;;;;5063289;27;45563;-58
2023/03/28 11:53:04;;;;;;;;;11.33;8.00;;;;;;;;5058915;27;45405;-56
2023/03/28 11:55:35;;;;;;;;;7.75;6.25;;;;;;;;5072597;27;45454;-58
2023/03/28 11:58:17;;;;;;;;;4.00;4.00;;;;;;;;5072732;28;45541;-56
2023/03/28 12:00:45;;;;;;;;;3.00;3.00;;;;;;;;5072944;27;45434;-54
2023/03/28 12:03:27;;;;;;;;;4.00;4.00;;;;;;;;5072496;27;46105;-54
2023/03/28 12:05:58;;;;;;;;;4.00;4.00;;;;;;;;5058315;28;45533;-55
2023/03/28 12:08:27;;;;;;;;;4.33;4.00;;;;;;;;5072170;27;46186;-55
2023/03/28 12:10:56;;;;;;;;;4.67;4.67;;;;;;;;5071779;27;45680;-56
2023/03/28 12:13:33;;;;;;;;;5.33;4.00;;;;;;;;5067763;27;45763;-56
2023/03/28 12:16:24;;;;;;;;;4.33;3.67;;;;;;;;5073191;27;45504;-56
2023/03/28 12:18:51;;;;;;;;;5.00;5.00;;;;;;;;5048600;27;45526;-57
2023/03/28 12:21:21;;;;;;;;;4.00;4.00;;;;;;;;5072647;28;45548;-56
2023/03/28 12:24:05;;;;;;;;;4.00;4.00;;;;;;;;5072356;27;46428;-55
2023/03/28 12:26:50;;;;;;;;;4.67;3.67;;;;;;;;5072652;28;45578;-55
2023/03/28 12:29:31;;;;;;;;;5.33;4.00;;;;;;;;5072615;27;45505;-57
2023/03/28 12:32:04;;;;;;;;;3.00;3.00;;;;;;;;5072653;27;45474;-56
2023/03/28 12:34:48;;;;;;;;;3.33;3.33;;;;;;;;5072474;27;46422;-56
2023/03/28 12:37:16;;;;;;;;;3.67;3.67;;;;;;;;5072569;27;45470;-59
2023/03/28 12:39:47;;;;;;;;;3.00;3.00;;;;;;;;5071403;27;45461;-57
2023/03/28 12:42:14;;;;;;;;;3.33;3.33;;;;;;;;5072599;27;45557;-55
2023/03/28 12:44:43;;;;;;;;;3.67;3.67;;;;;;;;5072111;27;45526;-58
2023/03/28 12:47:24;;;;;;;;;4.00;4.00;;;;;;;;5070991;27;45523;-58
2023/03/28 12:49:55;;;;;;;;;2.33;2.33;;;;;;;;5072463;27;45509;-59
2023/03/28 12:52:23;;;;;;;;;6.00;4.67;;;;;;;;5072610;27;45666;-57
2023/03/28 12:54:52;;;;;;;;;5.33;4.00;;;;;;;;5072206;27;45439;-58
2023/03/28 12:57:39;;;;;;;;;3.00;3.00;;;;;;;;5072356;27;45530;-58
2023/03/28 13:00:13;;;;;;;;;3.00;3.00;;;;;;;;5059009;27;45561;-57
2023/03/28 13:02:38;;;;;;;;;2.00;2.00;;;;;;;;5072453;27;45478;-57
2023/03/28 13:05:23;;;;;;;;;3.00;3.00;;;;;;;;5072021;27;45448;-55
2023/03/28 13:07:52;;;;;;;;;1.33;1.33;;;;;;;;5073139;27;45498;-60
2023/03/28 13:10:40;;;;;;;;;6.33;6.00;;;;;;;;5074221;27;45591;-58
2023/03/28 13:13:23;;;;;;;;;2.00;2.00;;;;;;;;5075591;27;45506;-57
2023/03/28 13:15:54;;;;;;;;;1.00;1.00;;;;;;;;5075452;27;46111;-58
2023/03/28 13:18:19;;;;;;;;;1.00;1.00;;;;;;;;5075414;27;45502;-58
2023/03/28 13:20:45;;;;;;;;;1.67;1.67;;;;;;;;5075364;27;45675;-57
2023/03/28 13:23:12;;;;;;;;;2.00;2.00;;;;;;;;5075574;27;45485;-57
2023/03/28 13:25:37;;;;;;;;;1.00;1.00;;;;;;;;5075250;27;45548;-57
2023/03/28 13:28:11;;;;;;;;;2.67;2.00;;;;;;;;5075270;27;45487;-57
2023/03/28 13:30:46;;;;;;;;;2.00;2.00;;;;;;;;5055461;28;45509;-57
2023/03/28 13:33:20;;;;;;;;;3.00;3.00;;;;;;;;5075453;27;45481;-57
2023/03/28 13:36:08;;;;;;;;;1.67;1.67;;;;;;;;5074937;27;45528;-57
2023/03/28 13:38:57;;;;;;;;;2.00;2.00;;;;;;;;5075036;27;45511;-58
2023/03/28 13:41:34;;;;;;;;;1.00;1.00;;;;;;;;5075433;27;45459;-57
2023/03/28 13:44:01;;;;;;;;;3.00;3.00;;;;;;;;5075216;27;45476;-57
2023/03/28 13:46:29;;;;;;;;;2.33;2.00;;;;;;;;5074825;27;45611;-55
2023/03/28 13:49:00;;;;;;;;;0.00;0.00;;;;;;;;5073543;27;45481;-57
2023/03/28 13:51:29;;;;;;;;;1.00;1.00;;;;;;;;5074865;27;46242;-57
2023/03/28 13:53:54;;;;;;;;;2.00;2.00;;;;;;;;5073490;27;45567;-57
2023/03/28 13:56:22;;;;;;;;;1.00;1.00;;;;;;;;5074624;27;46400;-57
2023/03/28 13:58:48;;;;;;;;;1.00;1.00;;;;;;;;5074893;27;45645;-57
2023/03/28 14:01:18;;;;;;;;;1.33;1.33;;;;;;;;5074605;27;45485;-56
2023/03/28 14:03:44;;;;;;;;;2.67;2.67;;;;;;;;5074971;27;45490;-56
2023/03/28 14:06:20;;;;;;;;;1.00;1.00;;;;;;;;5074490;27;45492;-57
2023/03/28 14:08:46;;;;;;;;;1.33;1.33;;;;;;;;5074704;27;46074;-56
2023/03/28 14:11:11;;;;;;;;;3.00;1.67;;;;;;;;5074269;27;45442;-56
2023/03/28 14:13:37;;;;;;;;;3.00;1.00;;;;;;;;5074661;27;45489;-56
2023/03/28 14:16:04;;;;;;;;;0.67;0.67;;;;;;;;5074604;27;46223;-56
2023/03/28 14:18:34;;;;;;;;;2.33;1.00;;;;;;;;5072534;27;45899;-55
2023/03/28 14:21:00;;;;;;;;;1.33;1.33;;;;;;;;5074616;27;45516;-56
2023/03/28 14:23:25;;;;;;;;;1.00;1.00;;;;;;;;5074500;27;45599;-57
2023/03/28 14:25:50;;;;;;;;;1.00;1.00;;;;;;;;5074761;27;46167;-56
2023/03/28 14:28:15;;;;;;;;;1.00;1.00;;;;;;;;5074561;27;45448;-56
2023/03/28 14:30:41;;;;;;;;;0.67;0.67;;;;;;;;5074273;27;45574;-56
2023/03/28 14:33:09;;;;;;;;;1.00;1.00;;;;;;;;5074574;27;45677;-56
2023/03/28 14:35:35;;;;;;;;;1.00;1.00;;;;;;;;5074063;27;45927;-56
2023/03/28 14:38:04;;;;;;;;;1.33;1.33;;;;;;;;5074118;27;45640;-56
2023/03/28 14:40:36;;;;;;;;;1.00;1.00;;;;;;;;5074305;27;45528;-56
2023/03/28 14:43:06;;;;;;;;;1.33;1.33;;;;;;;;5059104;27;45609;-56
2023/03/28 14:45:36;;;;;;;;;1.00;1.00;;;;;;;;5072553;27;45534;-56
2023/03/28 14:48:03;;;;;;;;;1.00;0.00;;;;;;;;5074136;27;45557;-56
2023/03/28 14:50:33;;;;;;;;;1.67;0.00;;;;;;;;5074135;27;45817;-56